createdAt,value
2023-06-07T00:04:37.099Z,13.80
2023-06-07T00:09:40.279Z,13.82
2023-06-07T00:14:44.708Z,13.81
2023-06-07T00:19:47.994Z,13.78
2023-06-07T00:24:52.816Z,13.73
2023-06-07T00:29:56.000Z,13.66
2023-06-07T00:34:59.151Z,13.59
2023-06-07T00:40:02.332Z,13.51
2023-06-07T00:45:06.500Z,13.42
2023-06-07T00:50:09.823Z,13.32
2023-06-07T00:55:14.526Z,13.23
2023-06-07T01:00:17.771Z,13.16
2023-06-07T01:05:21.437Z,13.11
2023-06-07T01:10:27.197Z,13.09
2023-06-07T01:15:30.757Z,13.08
2023-06-07T01:20:36.562Z,13.04
2023-06-07T01:25:39.829Z,12.97
2023-06-07T01:30:43.489Z,12.86
2023-06-07T01:35:47.810Z,12.72
2023-06-07T01:40:53.389Z,12.57
2023-06-07T01:45:57.011Z,12.41
2023-06-07T01:50:59.838Z,12.25
2023-06-07T01:56:17.274Z,12.09
2023-06-07T02:01:32.342Z,11.94
2023-06-07T02:06:38.040Z,11.79
2023-06-07T02:11:42.236Z,13.10
2023-06-07T02:16:45.050Z,16.71
2023-06-07T02:21:47.896Z,16.54
2023-06-07T02:26:50.683Z,14.87
2023-06-07T02:31:59.170Z,13.97
2023-06-07T02:37:01.991Z,13.38
2023-06-07T02:42:06.474Z,12.90
2023-06-07T02:47:09.594Z,12.50
2023-06-07T02:52:12.595Z,12.18
2023-06-07T02:57:15.542Z,11.93
2023-06-07T03:02:18.330Z,11.73
2023-06-07T03:07:21.760Z,11.61
2023-06-07T03:12:24.557Z,11.55
2023-06-07T03:17:28.185Z,11.54
2023-06-07T03:22:31.002Z,11.59
2023-06-07T03:27:35.946Z,11.72
2023-06-07T03:32:38.729Z,13.52
2023-06-07T03:37:41.544Z,17.09
2023-06-07T03:42:44.455Z,17.60
2023-06-07T03:47:47.304Z,15.91
2023-06-07T03:52:50.106Z,15.03
2023-06-07T03:57:52.998Z,14.56
2023-06-07T04:02:56.956Z,14.26
2023-06-07T04:08:00.765Z,14.13
2023-06-07T04:13:03.710Z,14.09
2023-06-07T04:18:06.742Z,14.12
2023-06-07T04:23:09.574Z,14.23
2023-06-07T04:28:13.379Z,14.42
2023-06-07T04:33:18.579Z,14.65
2023-06-07T04:38:23.348Z,14.90
2023-06-07T04:43:26.681Z,15.19
2023-06-07T04:48:30.124Z,15.50
2023-06-07T04:53:37.965Z,15.80
2023-06-07T04:58:41.729Z,16.13
2023-06-07T05:03:44.596Z,16.41
2023-06-07T05:08:47.510Z,16.71
2023-06-07T05:13:50.359Z,17.00
2023-06-07T05:18:54.379Z,17.30
2023-06-07T05:23:57.218Z,17.63
2023-06-07T05:29:00.136Z,18.02
2023-06-07T05:34:02.920Z,18.42
2023-06-07T05:39:06.668Z,18.82
2023-06-07T05:44:09.449Z,19.22
2023-06-07T05:49:14.317Z,19.61
2023-06-07T05:54:17.597Z,20.01
2023-06-07T05:59:20.478Z,20.39
2023-06-07T06:04:24.362Z,20.75
2023-06-07T06:09:28.192Z,21.07
2023-06-07T06:14:31.102Z,21.37
2023-06-07T06:19:34.304Z,21.60
2023-06-07T06:24:37.141Z,21.82
2023-06-07T06:29:40.291Z,22.06
2023-06-07T06:34:43.133Z,22.23
2023-06-07T06:39:52.817Z,22.46
2023-06-07T06:44:55.987Z,22.74
2023-06-07T06:50:01.335Z,23.02
2023-06-07T06:55:04.858Z,23.27
2023-06-07T07:00:11.581Z,23.53
2023-06-07T07:05:15.196Z,23.79
2023-06-07T07:10:19.715Z,24.04
2023-06-07T07:15:23.129Z,24.29
2023-06-07T07:20:28.331Z,24.50
2023-06-07T07:25:31.122Z,24.67
2023-06-07T07:30:33.947Z,24.88
2023-06-07T07:35:36.942Z,25.11
2023-06-07T07:40:39.751Z,25.35
2023-06-07T07:45:42.879Z,25.58
2023-06-07T07:50:45.682Z,25.80
2023-06-07T07:55:48.604Z,25.98
2023-06-07T08:00:51.620Z,26.13
2023-06-07T08:05:54.430Z,26.32
2023-06-07T08:10:58.514Z,26.48
2023-06-07T08:16:07.663Z,26.58
2023-06-07T08:21:13.858Z,26.70
2023-06-07T08:26:19.475Z,26.90
2023-06-07T08:31:23.664Z,27.14
2023-06-07T08:36:29.592Z,27.37
2023-06-07T08:41:35.413Z,27.47
2023-06-07T08:46:38.941Z,27.44
2023-06-07T08:51:43.366Z,27.67
2023-06-07T08:56:47.258Z,28.02
2023-06-07T09:01:50.281Z,28.34
2023-06-07T09:06:53.506Z,28.69
2023-06-07T09:11:56.422Z,28.97
2023-06-07T09:17:01.128Z,29.26
2023-06-07T09:22:05.399Z,29.45
2023-06-07T09:27:12.057Z,29.41
2023-06-07T09:32:25.135Z,29.61
2023-06-07T09:37:59.196Z,29.85
2023-06-07T09:43:02.587Z,30.00
2023-06-07T09:48:08.552Z,30.04
2023-06-07T09:53:11.600Z,30.23
2023-06-07T09:58:23.484Z,30.39
2023-06-07T10:03:27.439Z,30.44
2023-06-07T10:08:30.463Z,30.49
2023-06-07T10:13:34.186Z,30.43
2023-06-07T10:18:45.162Z,30.49
2023-06-07T10:24:00.959Z,30.58
2023-06-07T10:29:21.880Z,30.47
2023-06-07T10:34:27.102Z,30.40
2023-06-07T10:39:30.590Z,30.57
2023-06-07T10:44:36.924Z,30.62
2023-06-07T10:49:40.288Z,30.84
2023-06-07T10:54:45.010Z,31.37
2023-06-07T10:59:47.928Z,31.71
2023-06-07T11:05:01.382Z,31.71
2023-06-07T11:10:08.577Z,31.78
2023-06-07T11:15:22.198Z,31.90
2023-06-07T11:20:37.491Z,31.60
2023-06-07T11:25:40.871Z,31.21
2023-06-07T11:30:46.337Z,30.89
2023-06-07T11:35:53.186Z,30.64
2023-06-07T11:40:57.311Z,30.57
2023-06-07T11:46:01.146Z,30.75
2023-06-07T11:51:04.079Z,30.56
2023-06-07T11:56:09.550Z,30.23
2023-06-07T12:01:13.588Z,30.15
2023-06-07T12:06:16.539Z,30.24
2023-06-07T12:11:25.475Z,30.03
2023-06-07T12:16:29.270Z,30.17
2023-06-07T12:21:32.510Z,30.57
2023-06-07T12:26:37.945Z,31.04
2023-06-07T12:31:44.180Z,31.44
2023-06-07T12:36:48.855Z,31.74
2023-06-07T12:41:51.704Z,31.56
2023-06-07T12:46:54.746Z,31.12
2023-06-07T12:51:57.590Z,30.63
2023-06-07T12:57:00.429Z,30.19
2023-06-07T13:02:03.835Z,29.84
2023-06-07T13:07:06.944Z,29.67
2023-06-07T13:12:10.651Z,29.83
2023-06-07T13:17:13.670Z,30.48
2023-06-07T13:22:17.670Z,31.09
2023-06-07T13:27:20.784Z,31.53
2023-06-07T13:32:24.029Z,31.90
2023-06-07T13:37:27.609Z,32.38
2023-06-07T13:42:30.392Z,32.80
2023-06-07T13:47:33.277Z,33.13
2023-06-07T13:52:36.103Z,33.59
2023-06-07T13:57:39.302Z,34.01
2023-06-07T14:02:43.186Z,34.42
2023-06-07T14:07:46.437Z,34.91
2023-06-07T14:12:49.319Z,35.29
2023-06-07T14:17:52.180Z,35.31
2023-06-07T14:22:55.349Z,35.47
2023-06-07T14:27:58.676Z,35.67
2023-06-07T14:33:01.515Z,35.83
2023-06-07T14:38:04.953Z,35.91
2023-06-07T14:43:09.635Z,35.90
2023-06-07T14:48:12.460Z,36.03
2023-06-07T14:53:15.418Z,36.16
2023-06-07T14:58:18.207Z,36.01
2023-06-07T15:03:21.075Z,35.79
2023-06-07T15:08:24.205Z,35.13
2023-06-07T15:13:27.031Z,34.54
2023-06-07T15:18:29.877Z,33.68
2023-06-07T15:23:32.694Z,32.66
2023-06-07T15:28:35.665Z,31.96
2023-06-07T15:33:38.469Z,31.74
2023-06-07T15:38:41.453Z,32.37
2023-06-07T15:43:45.471Z,33.56
2023-06-07T15:48:52.019Z,34.66
2023-06-07T15:53:55.272Z,35.93
2023-06-07T15:58:58.576Z,36.85
2023-06-07T16:04:01.478Z,37.74
2023-06-07T16:09:09.357Z,38.45
2023-06-07T16:14:13.390Z,38.79
2023-06-07T16:19:16.339Z,39.05
2023-06-07T16:24:19.225Z,38.43
2023-06-07T16:29:22.165Z,36.68
2023-06-07T16:34:25.102Z,34.95
2023-06-07T16:39:28.024Z,34.27
2023-06-07T16:44:31.456Z,35.17
2023-06-07T16:49:34.402Z,36.42
2023-06-07T16:54:37.218Z,37.50
2023-06-07T16:59:40.431Z,38.37
2023-06-07T17:04:43.287Z,38.64
2023-06-07T17:09:46.094Z,38.81
2023-06-07T17:14:49.795Z,38.97
2023-06-07T17:19:52.764Z,38.98
2023-06-07T17:24:55.833Z,38.91
2023-06-07T17:29:59.744Z,38.72
2023-06-07T17:35:02.611Z,38.44
2023-06-07T17:40:07.017Z,37.87
2023-06-07T17:45:10.461Z,37.37
2023-06-07T17:50:13.288Z,36.90
2023-06-07T17:55:16.264Z,36.38
2023-06-07T18:00:19.432Z,35.52
2023-06-07T18:05:22.288Z,34.07
2023-06-07T18:10:25.081Z,32.16
2023-06-07T18:15:28.954Z,30.35
2023-06-07T18:20:31.794Z,28.79
2023-06-07T18:25:34.579Z,27.60
2023-06-07T18:30:37.865Z,26.60
2023-06-07T18:35:40.705Z,25.76
2023-06-07T18:40:43.584Z,25.04
2023-06-07T18:45:48.908Z,24.44
2023-06-07T18:50:52.074Z,23.97
2023-06-07T18:55:54.877Z,23.56
2023-06-07T19:00:57.889Z,23.21
2023-06-07T19:06:00.970Z,22.88
2023-06-07T19:11:03.874Z,22.58
2023-06-07T19:16:07.048Z,22.30
2023-06-07T19:21:10.122Z,22.05
2023-06-07T19:26:12.901Z,21.80
2023-06-07T19:31:16.403Z,21.57
2023-06-07T19:36:19.447Z,21.35
2023-06-07T19:41:24.319Z,21.12
2023-06-07T19:46:27.239Z,20.91
2023-06-07T19:51:30.063Z,20.69
2023-06-07T19:56:32.883Z,20.48
2023-06-07T20:01:35.800Z,20.28
2023-06-07T20:06:40.039Z,20.09
2023-06-07T20:11:42.848Z,19.91
2023-06-07T20:16:45.655Z,19.70
2023-06-07T20:21:48.500Z,19.48
2023-06-07T20:26:51.361Z,19.26
2023-06-07T20:31:54.227Z,19.05
2023-06-07T20:36:57.529Z,18.86
2023-06-07T20:42:03.315Z,18.65
2023-06-07T20:47:07.326Z,18.44
2023-06-07T20:52:10.099Z,18.26
2023-06-07T20:57:13.433Z,18.07
2023-06-07T21:02:16.287Z,17.90
2023-06-07T21:07:19.129Z,17.73
2023-06-07T21:12:21.873Z,17.54
2023-06-07T21:17:24.792Z,17.35
2023-06-07T21:22:28.426Z,17.18
2023-06-07T21:27:31.231Z,17.01
2023-06-07T21:32:34.034Z,16.85
2023-06-07T21:37:36.905Z,16.69
2023-06-07T21:42:40.132Z,16.53
2023-06-07T21:47:43.894Z,16.37
2023-06-07T21:52:47.682Z,16.22
2023-06-07T21:57:50.492Z,16.07
2023-06-07T22:02:53.306Z,15.92
2023-06-07T22:07:56.728Z,15.79
2023-06-07T22:13:01.866Z,15.68
2023-06-07T22:18:04.823Z,15.57
2023-06-07T22:23:08.703Z,15.48
2023-06-07T22:28:13.622Z,15.40
2023-06-07T22:33:17.802Z,15.33
2023-06-07T22:38:20.631Z,15.26
2023-06-07T22:43:23.462Z,15.21
2023-06-07T22:48:26.969Z,15.18
2023-06-07T22:53:32.662Z,15.19
2023-06-07T22:58:35.968Z,15.19
2023-06-07T23:03:39.908Z,15.20
2023-06-07T23:08:44.153Z,15.18
2023-06-07T23:13:47.245Z,15.15
2023-06-07T23:18:50.094Z,15.10
2023-06-07T23:23:53.420Z,15.01
2023-06-07T23:28:56.287Z,14.91
2023-06-07T23:33:59.104Z,14.81
2023-06-07T23:39:01.870Z,14.69
2023-06-07T23:44:05.143Z,14.56
2023-06-07T23:49:08.159Z,14.43
2023-06-07T23:54:11.151Z,14.32
2023-06-07T23:59:13.918Z,14.21
